createdAt,value
2022-11-04T00:00:57.212Z,10.19
2022-11-04T00:03:38.496Z,10.17
2022-11-04T00:06:19.223Z,10.25
2022-11-04T00:09:04.403Z,10.22
2022-11-04T00:12:05.831Z,10.28
2022-11-04T00:14:47.516Z,10.21
2022-11-04T00:17:40.510Z,10.22
2022-11-04T00:20:44.089Z,10.21
2022-11-04T00:23:40.404Z,10.26
2022-11-04T00:26:33.966Z,10.24
2022-11-04T00:29:16.918Z,10.25
2022-11-04T00:32:11.296Z,10.26
2022-11-04T00:34:52.225Z,10.27
2022-11-04T00:37:42.008Z,10.24
2022-11-04T00:40:37.372Z,10.32
2022-11-04T00:43:18.395Z,10.36
2022-11-04T00:46:08.511Z,10.38
2022-11-04T00:48:55.500Z,10.41
2022-11-04T00:51:38.754Z,10.35
2022-11-04T00:54:22.509Z,10.36
2022-11-04T00:57:08.893Z,10.38
2022-11-04T01:00:04.561Z,10.37
2022-11-04T01:02:44.449Z,10.36
2022-11-04T01:05:34.497Z,10.41
2022-11-04T01:08:31.278Z,10.30
2022-11-04T01:11:19.571Z,10.40
2022-11-04T01:14:08.289Z,10.28
2022-11-04T01:16:52.933Z,10.33
2022-11-04T01:19:40.652Z,10.33
2022-11-04T01:22:23.508Z,10.28
2022-11-04T01:25:13.203Z,10.41
2022-11-04T01:28:02.212Z,10.35
2022-11-04T01:30:50.440Z,10.33
2022-11-04T01:33:36.800Z,10.34
2022-11-04T01:36:16.992Z,10.36
2022-11-04T01:39:02.945Z,10.37
2022-11-04T01:41:52.582Z,10.36
2022-11-04T01:44:52.537Z,10.35
2022-11-04T01:47:46.326Z,10.32
2022-11-04T01:50:33.518Z,10.32
2022-11-04T01:53:31.522Z,10.33
2022-11-04T01:56:26.526Z,10.29
2022-11-04T01:59:07.439Z,10.20
2022-11-04T02:01:50.843Z,10.18
2022-11-04T02:04:34.878Z,10.21
2022-11-04T02:07:21.895Z,10.20
2022-11-04T02:10:07.859Z,10.12
2022-11-04T02:12:56.986Z,10.07
2022-11-04T02:15:58.520Z,10.04
2022-11-04T02:18:52.616Z,10.09
2022-11-04T02:21:43.526Z,10.02
2022-11-04T02:25:17.025Z,9.85
2022-11-04T02:28:21.158Z,9.83
2022-11-04T02:31:20.498Z,9.84
2022-11-04T02:34:04.378Z,9.86
2022-11-04T02:37:27.123Z,9.82
2022-11-04T02:40:24.971Z,9.77
2022-11-04T02:43:32.646Z,9.74
2022-11-04T02:46:47.411Z,9.69
2022-11-04T02:49:39.320Z,9.71
2022-11-04T02:52:30.238Z,9.70
2022-11-04T02:55:28.738Z,9.70
2022-11-04T02:58:13.637Z,9.70
2022-11-04T03:01:01.633Z,9.66
2022-11-04T03:03:55.848Z,9.69
2022-11-04T03:06:42.764Z,9.76
2022-11-04T03:09:31.248Z,9.76
2022-11-04T03:12:15.112Z,9.77
2022-11-04T03:15:08.517Z,9.70
2022-11-04T03:18:00.676Z,9.68
2022-11-04T03:20:49.339Z,9.65
2022-11-04T03:23:41.906Z,9.67
2022-11-04T03:26:56.040Z,9.63
2022-11-04T03:30:26.255Z,9.68
2022-11-04T03:33:30.061Z,9.55
2022-11-04T03:36:11.158Z,9.40
2022-11-04T03:38:59.712Z,9.47
2022-11-04T03:42:00.364Z,9.42
2022-11-04T03:44:41.592Z,9.32
2022-11-04T03:47:17.209Z,9.37
2022-11-04T03:50:08.277Z,9.40
2022-11-04T03:52:55.113Z,9.40
2022-11-04T03:55:45.402Z,9.35
2022-11-04T03:59:01.391Z,9.31
2022-11-04T04:02:00.795Z,9.30
2022-11-04T04:04:46.329Z,9.40
2022-11-04T04:07:43.171Z,9.34
2022-11-04T04:10:47.961Z,9.33
2022-11-04T04:13:47.263Z,9.32
2022-11-04T04:16:38.329Z,9.32
2022-11-04T04:19:27.329Z,9.29
2022-11-04T04:22:15.590Z,9.17
2022-11-04T04:25:19.025Z,9.27
2022-11-04T04:28:11.516Z,9.08
2022-11-04T04:30:57.689Z,9.10
2022-11-04T04:33:45.630Z,8.99
2022-11-04T04:36:32.408Z,8.98
2022-11-04T04:39:31.830Z,9.03
2022-11-04T04:42:32.170Z,8.93
2022-11-04T04:45:19.725Z,8.81
2022-11-04T04:48:03.692Z,8.84
2022-11-04T04:51:02.223Z,8.79
2022-11-04T04:53:40.766Z,8.76
2022-11-04T04:56:27.434Z,8.83
2022-11-04T04:59:10.988Z,8.81
2022-11-04T05:01:56.640Z,8.81
2022-11-04T05:04:37.385Z,8.79
2022-11-04T05:07:15.896Z,8.82
2022-11-04T05:09:56.733Z,8.75
2022-11-04T05:12:54.274Z,8.72
2022-11-04T05:15:36.285Z,8.72
2022-11-04T05:18:20.541Z,8.72
2022-11-04T05:21:22.192Z,8.67
2022-11-04T05:24:00.429Z,8.69
2022-11-04T05:26:43.099Z,8.75
2022-11-04T05:29:35.518Z,8.58
2022-11-04T05:32:21.519Z,8.63
2022-11-04T05:35:04.638Z,8.65
2022-11-04T05:37:45.514Z,8.64
2022-11-04T05:40:36.676Z,8.68
2022-11-04T05:43:23.521Z,8.59
2022-11-04T05:46:11.882Z,8.60
2022-11-04T05:48:53.554Z,8.60
2022-11-04T05:51:46.912Z,8.54
2022-11-04T05:54:30.483Z,8.54
2022-11-04T05:57:20.386Z,8.50
2022-11-04T06:00:00.276Z,8.47
2022-11-04T06:02:52.609Z,8.63
2022-11-04T06:05:33.278Z,8.66
2022-11-04T06:08:20.298Z,8.59
2022-11-04T06:10:58.686Z,8.64
2022-11-04T06:14:06.132Z,8.73
2022-11-04T06:16:52.390Z,8.66
2022-11-04T06:19:41.222Z,8.53
2022-11-04T06:22:22.489Z,8.64
2022-11-04T06:25:14.528Z,8.71
2022-11-04T06:28:05.550Z,8.69
2022-11-04T06:30:56.322Z,8.63
2022-11-04T06:33:50.514Z,8.63
2022-11-04T06:36:34.544Z,8.62
2022-11-04T06:39:20.498Z,8.64
2022-11-04T06:42:04.555Z,8.64
2022-11-04T06:44:47.441Z,8.69
2022-11-04T06:47:33.517Z,8.73
2022-11-04T06:50:27.734Z,8.72
2022-11-04T06:53:12.503Z,8.76
2022-11-04T06:56:06.876Z,8.69
2022-11-04T06:59:00.462Z,8.71
2022-11-04T07:01:49.934Z,8.80
2022-11-04T07:04:34.499Z,8.82
2022-11-04T07:07:17.245Z,8.81
2022-11-04T07:10:05.571Z,8.79
2022-11-04T07:12:42.806Z,8.81
2022-11-04T07:15:41.538Z,8.82
2022-11-04T07:18:27.277Z,8.85
2022-11-04T07:21:10.164Z,8.93
2022-11-04T07:23:56.435Z,8.93
2022-11-04T07:26:39.866Z,8.74
2022-11-04T07:29:20.258Z,8.84
2022-11-04T07:31:57.738Z,8.79
2022-11-04T07:34:43.498Z,8.93
2022-11-04T07:37:29.830Z,8.85
2022-11-04T07:40:08.740Z,8.93
2022-11-04T07:42:59.973Z,8.80
2022-11-04T07:46:03.894Z,8.93
2022-11-04T07:48:46.864Z,8.98
2022-11-04T07:51:26.626Z,8.85
2022-11-04T07:54:11.468Z,8.88
2022-11-04T07:56:52.425Z,9.02
2022-11-04T07:59:35.319Z,9.04
2022-11-04T08:02:13.834Z,8.95
2022-11-04T08:05:06.506Z,9.03
2022-11-04T08:07:51.804Z,8.98
2022-11-04T08:10:42.508Z,9.03
2022-11-04T08:13:36.586Z,9.10
2022-11-04T08:16:20.498Z,9.18
2022-11-04T08:19:10.460Z,9.19
2022-11-04T08:21:50.881Z,9.24
2022-11-04T08:24:37.994Z,9.26
2022-11-04T08:27:27.928Z,9.21
2022-11-04T08:30:13.967Z,9.15
2022-11-04T08:33:00.495Z,9.29
2022-11-04T08:35:47.199Z,9.26
2022-11-04T08:38:32.772Z,9.32
2022-11-04T08:41:19.446Z,9.43
2022-11-04T08:44:04.318Z,9.41
2022-11-04T08:46:56.077Z,9.23
2022-11-04T08:49:42.869Z,9.31
2022-11-04T08:52:25.869Z,9.37
2022-11-04T08:55:10.139Z,9.41
2022-11-04T08:58:01.314Z,9.49
2022-11-04T09:00:40.054Z,9.50
2022-11-04T09:03:24.540Z,9.47
2022-11-04T09:06:11.805Z,9.30
2022-11-04T09:08:58.291Z,9.33
2022-11-04T09:11:45.461Z,9.46
2022-11-04T09:14:29.485Z,9.41
2022-11-04T09:17:12.480Z,9.44
2022-11-04T09:19:58.453Z,9.43
2022-11-04T09:22:46.089Z,9.37
2022-11-04T09:25:33.264Z,9.50
2022-11-04T09:28:25.725Z,9.35
2022-11-04T09:31:14.792Z,9.35
2022-11-04T09:34:06.667Z,9.40
2022-11-04T09:37:03.507Z,9.29
2022-11-04T09:39:54.102Z,9.44
2022-11-04T09:42:40.349Z,9.40
2022-11-04T09:45:23.370Z,9.43
2022-11-04T09:48:14.956Z,9.34
2022-11-04T09:50:55.856Z,9.51
2022-11-04T09:57:24.975Z,9.40
2022-11-04T10:00:20.578Z,9.43
2022-11-04T10:03:13.439Z,9.49
2022-11-04T10:06:18.858Z,9.52
2022-11-04T10:09:29.236Z,9.55
2022-11-04T10:12:24.491Z,9.43
2022-11-04T10:15:28.306Z,9.56
2022-11-04T10:18:38.135Z,9.58
2022-11-04T10:21:23.509Z,9.63
2022-11-04T10:24:21.547Z,9.73
2022-11-04T10:27:01.571Z,9.65
2022-11-04T10:30:09.151Z,9.62
2022-11-04T10:33:13.868Z,9.55
2022-11-04T10:36:22.447Z,9.65
2022-11-04T10:39:18.415Z,9.63
2022-11-04T10:42:15.518Z,9.55
2022-11-04T10:45:04.029Z,9.59
2022-11-04T10:48:33.909Z,9.63
2022-11-04T10:51:25.483Z,9.85
2022-11-04T10:54:05.415Z,9.74
2022-11-04T10:56:57.300Z,9.92
2022-11-04T11:00:14.545Z,9.82
2022-11-04T11:03:02.792Z,9.89
2022-11-04T11:05:56.977Z,9.83
2022-11-04T11:08:48.392Z,9.92
2022-11-04T11:11:46.507Z,10.03
2022-11-04T11:14:49.196Z,9.95
2022-11-04T11:17:39.264Z,9.88
2022-11-04T11:20:35.847Z,9.84
2022-11-04T11:23:45.287Z,9.88
2022-11-04T11:26:48.117Z,10.08
2022-11-04T11:29:42.162Z,10.15
2022-11-04T11:32:48.865Z,10.00
2022-11-04T11:35:44.550Z,10.09
2022-11-04T11:38:45.800Z,10.09
2022-11-04T11:41:29.044Z,10.02
2022-11-04T11:44:32.626Z,10.14
2022-11-04T11:47:28.602Z,10.33
2022-11-04T11:51:09.309Z,10.36
2022-11-04T11:54:14.729Z,10.30
2022-11-04T11:57:25.110Z,10.38
2022-11-04T12:00:38.046Z,10.42
2022-11-04T12:10:51.767Z,10.55
2022-11-04T12:13:58.606Z,10.61
2022-11-04T12:17:28.090Z,10.62
2022-11-04T12:20:32.512Z,10.58
2022-11-04T12:23:42.912Z,10.63
2022-11-04T12:26:39.025Z,10.54
2022-11-04T12:29:39.872Z,10.62
2022-11-04T12:32:58.494Z,10.58
2022-11-04T12:36:11.235Z,10.50
2022-11-04T12:38:56.329Z,10.58
2022-11-04T12:42:19.525Z,10.67
2022-11-04T12:45:14.776Z,10.76
2022-11-04T12:47:58.598Z,10.74
2022-11-04T12:51:21.173Z,10.73
2022-11-04T12:54:02.512Z,10.70
2022-11-04T12:57:40.855Z,10.87
2022-11-04T13:00:40.649Z,10.81
2022-11-04T13:03:32.883Z,10.95
2022-11-04T13:06:34.477Z,11.03
2022-11-04T13:09:22.834Z,11.03
2022-11-04T13:12:26.633Z,11.16
2022-11-04T13:15:13.905Z,11.05
2022-11-04T13:17:54.312Z,11.19
2022-11-04T13:20:35.736Z,11.05
2022-11-04T13:23:46.248Z,11.05
2022-11-04T13:26:31.663Z,10.94
2022-11-04T13:29:44.971Z,11.03
2022-11-04T13:32:58.011Z,11.06
2022-11-04T13:36:22.656Z,10.89
2022-11-04T13:39:08.503Z,10.95
2022-11-04T13:42:16.692Z,10.89
2022-11-04T14:25:00.489Z,11.11
2022-11-04T14:27:53.676Z,11.08
2022-11-04T14:30:54.016Z,11.09
2022-11-04T14:33:37.338Z,11.02
2022-11-04T14:36:37.544Z,11.11
2022-11-04T14:39:41.718Z,10.98
2022-11-04T14:42:37.488Z,11.03
2022-11-04T14:45:25.471Z,11.02
2022-11-04T14:48:31.683Z,11.07
2022-11-04T14:51:13.471Z,10.98
2022-11-04T14:53:40.453Z,11.03
2022-11-04T14:56:24.781Z,11.01
2022-11-04T14:59:06.496Z,11.03
2022-11-04T15:02:11.885Z,10.97
2022-11-04T15:05:05.493Z,11.03
2022-11-04T15:07:45.492Z,11.01
2022-11-04T15:10:44.957Z,11.02
2022-11-04T15:13:33.499Z,11.03
2022-11-04T15:16:36.038Z,11.02
2022-11-04T15:19:24.044Z,10.96
2022-11-04T15:22:16.474Z,10.92
2022-11-04T15:25:00.354Z,10.93
2022-11-04T15:27:47.597Z,10.85
2022-11-04T15:31:02.510Z,10.89
2022-11-04T15:34:17.895Z,10.94
2022-11-04T15:37:18.976Z,10.90
2022-11-04T15:40:01.494Z,10.87
2022-11-04T15:42:49.107Z,10.92
2022-11-04T15:46:23.387Z,10.90
2022-11-04T15:49:25.059Z,10.93
2022-11-04T15:52:20.127Z,10.87
2022-11-04T15:55:04.732Z,10.93
2022-11-04T15:57:44.566Z,10.84
2022-11-04T16:00:39.659Z,10.91
2022-11-04T16:03:27.477Z,10.80
2022-11-04T16:06:17.296Z,10.80
2022-11-04T16:09:17.473Z,10.85
2022-11-04T16:12:22.303Z,10.95
2022-11-04T16:15:03.450Z,11.00
2022-11-04T16:18:03.780Z,10.99
2022-11-04T16:20:59.881Z,11.01
2022-11-04T16:23:50.451Z,11.00
2022-11-04T16:26:47.356Z,10.95
2022-11-04T16:29:48.743Z,10.92
2022-11-04T16:32:48.542Z,10.99
2022-11-04T16:35:32.978Z,10.85
2022-11-04T16:38:24.554Z,10.87
2022-11-04T16:41:14.493Z,10.82
2022-11-04T16:44:01.647Z,10.83
2022-11-04T16:46:49.678Z,10.82
2022-11-04T16:49:32.506Z,10.85
2022-11-04T16:52:21.015Z,10.87
2022-11-04T16:55:05.463Z,10.84
2022-11-04T16:57:52.502Z,10.90
2022-11-04T17:00:38.071Z,10.90
2022-11-04T17:03:35.556Z,10.85
2022-11-04T17:06:14.462Z,10.86
2022-11-04T17:12:15.024Z,10.83
2022-11-04T17:15:06.468Z,10.83
2022-11-04T17:17:50.395Z,10.76
2022-11-04T17:20:36.367Z,10.72
2022-11-04T17:23:20.313Z,10.71
2022-11-04T17:26:09.472Z,10.75
2022-11-04T17:28:58.818Z,10.85
2022-11-04T17:31:48.029Z,10.84
2022-11-04T17:34:32.539Z,10.74
2022-11-04T17:37:18.165Z,10.82
2022-11-04T17:40:01.657Z,10.85
2022-11-04T17:43:11.939Z,10.94
2022-11-04T17:46:21.262Z,11.01
2022-11-04T17:49:23.769Z,10.97
2022-11-04T17:52:11.483Z,10.95
2022-11-04T17:54:59.910Z,11.00
2022-11-04T17:57:40.791Z,10.96
2022-11-04T18:00:29.758Z,10.98
2022-11-04T18:03:15.087Z,10.91
2022-11-04T18:06:09.229Z,10.96
2022-11-04T18:09:04.455Z,10.91
2022-11-04T18:12:00.795Z,10.93
2022-11-04T18:14:42.765Z,10.92
2022-11-04T18:17:29.675Z,10.97
2022-11-04T18:20:18.499Z,11.06
2022-11-04T18:23:09.569Z,11.06
2022-11-04T18:25:51.452Z,11.10
2022-11-04T18:28:35.456Z,11.10
2022-11-04T18:31:27.557Z,11.01
2022-11-04T18:34:17.602Z,11.04
2022-11-04T18:37:00.859Z,11.10
2022-11-04T18:39:50.277Z,11.00
2022-11-04T18:42:30.751Z,11.04
2022-11-04T18:45:11.385Z,11.02
2022-11-04T18:48:03.456Z,11.03
2022-11-04T18:50:44.273Z,11.14
2022-11-04T18:53:30.664Z,11.17
2022-11-04T18:56:33.005Z,11.18
2022-11-04T18:59:16.660Z,11.22
2022-11-04T19:02:05.672Z,11.24
2022-11-04T19:04:46.432Z,11.18
2022-11-04T19:07:50.070Z,11.25
2022-11-04T19:10:28.479Z,11.22
2022-11-04T19:13:26.567Z,11.04
2022-11-04T19:16:13.352Z,10.95
2022-11-04T19:19:00.495Z,10.88
2022-11-04T19:21:37.842Z,10.84
2022-11-04T19:24:26.011Z,10.79
2022-11-04T19:27:14.106Z,10.83
2022-11-04T19:29:56.483Z,10.79
2022-11-04T19:32:43.277Z,10.83
2022-11-04T19:35:23.754Z,10.73
2022-11-04T19:38:15.786Z,10.64
2022-11-04T19:41:43.987Z,10.65
2022-11-04T19:44:32.310Z,10.77
2022-11-04T19:47:16.449Z,10.72
2022-11-04T19:49:57.485Z,10.78
2022-11-04T19:52:41.426Z,10.80
2022-11-04T19:55:20.644Z,10.79
2022-11-04T19:58:01.920Z,10.78
2022-11-04T20:00:44.557Z,10.82
2022-11-04T20:03:25.015Z,10.74
2022-11-04T20:06:11.071Z,10.75
2022-11-04T20:08:54.831Z,10.77
2022-11-04T20:11:56.654Z,10.82
2022-11-04T20:14:45.897Z,10.75
2022-11-04T20:17:29.382Z,10.81
2022-11-04T20:20:12.484Z,10.88
2022-11-04T20:23:03.733Z,10.89
2022-11-04T20:25:52.788Z,10.95
2022-11-04T20:28:37.009Z,10.85
2022-11-04T20:31:21.436Z,10.71
2022-11-04T20:34:10.559Z,10.65
2022-11-04T20:37:03.135Z,10.58
2022-11-04T20:39:46.825Z,10.57
2022-11-04T20:42:27.944Z,10.63
2022-11-04T20:45:11.432Z,10.59
2022-11-04T20:47:58.820Z,10.64
2022-11-04T20:50:42.270Z,10.64
2022-11-04T20:53:25.156Z,10.68
2022-11-04T20:56:13.472Z,10.69
2022-11-04T20:58:59.871Z,10.80
2022-11-04T21:01:38.682Z,10.72
2022-11-04T21:04:19.214Z,10.69
2022-11-04T21:07:02.807Z,10.59
2022-11-04T21:09:43.788Z,10.58
2022-11-04T21:12:21.766Z,10.56
2022-11-04T21:15:28.566Z,10.63
2022-11-04T21:18:18.188Z,10.64
2022-11-04T21:21:04.137Z,10.64
2022-11-04T21:23:47.564Z,10.77
2022-11-04T21:26:29.869Z,10.92
2022-11-04T21:29:20.687Z,10.86
2022-11-04T21:32:07.814Z,10.76
2022-11-04T21:34:52.168Z,10.74
2022-11-04T21:37:37.208Z,10.56
2022-11-04T21:40:25.572Z,10.60
2022-11-04T21:43:17.617Z,10.59
2022-11-04T21:45:55.020Z,10.52
2022-11-04T21:48:44.463Z,10.56
2022-11-04T21:51:29.081Z,10.60
2022-11-04T21:54:17.123Z,10.54
2022-11-04T21:57:04.447Z,10.55
2022-11-04T21:59:49.439Z,10.58
2022-11-04T22:02:24.569Z,10.60
2022-11-04T22:05:08.529Z,10.65
2022-11-04T22:08:00.521Z,10.61
2022-11-04T22:10:49.452Z,10.54
2022-11-04T22:13:28.677Z,10.64
2022-11-04T22:16:31.083Z,10.60
2022-11-04T22:19:10.491Z,10.63
2022-11-04T22:21:56.979Z,10.60
2022-11-04T22:24:42.992Z,10.51
2022-11-04T22:27:26.470Z,10.61
2022-11-04T22:30:20.509Z,10.59
2022-11-04T22:33:01.463Z,10.63
2022-11-04T22:35:48.497Z,10.48
2022-11-04T22:38:32.650Z,10.52
2022-11-04T22:41:26.463Z,10.58
2022-11-04T22:44:12.484Z,10.42
2022-11-04T22:46:54.576Z,10.39
2022-11-04T22:49:41.056Z,10.54
2022-11-04T22:52:24.475Z,10.51
2022-11-04T22:55:14.458Z,10.47
2022-11-04T22:58:06.092Z,10.55
2022-11-04T23:00:51.679Z,10.59
2022-11-04T23:03:34.912Z,10.55
2022-11-04T23:06:18.482Z,10.56
2022-11-04T23:09:10.749Z,10.59
2022-11-04T23:12:04.553Z,10.51
2022-11-04T23:14:42.598Z,10.49
2022-11-04T23:17:40.981Z,10.52
2022-11-04T23:20:19.752Z,10.50
2022-11-04T23:23:21.255Z,10.57
2022-11-04T23:26:02.673Z,10.58
2022-11-04T23:29:01.767Z,10.57
2022-11-04T23:31:50.726Z,10.64
2022-11-04T23:34:38.764Z,10.65
2022-11-04T23:37:21.395Z,10.65
2022-11-04T23:40:12.434Z,10.65
2022-11-04T23:42:56.611Z,10.65
2022-11-04T23:45:56.177Z,10.63
2022-11-04T23:48:51.583Z,10.70
2022-11-04T23:51:50.010Z,10.63
2022-11-04T23:54:54.149Z,10.56
2022-11-04T23:57:47.755Z,10.53
